Time;durP1;ratioP1;P1;durP2;ratioP2;P2;SDS_P1;SDS_P2;PMS_P1;PMS_P2;Temp;Humidity;BMP_temperature;BMP_pressure;BME280_temperature;BME280_humidity;BME280_pressure;Samples;Min_cycle;Max_cycle;Signal;HPM_P1;HPM_P2
2023/11/14 00:02:11;;;;;;;0.60;0.60;;;;;;;9.99;91.04;97768.09;5013358;28;20049;-78
2023/11/14 00:04:38;;;;;;;0.60;0.60;;;;;;;10.02;90.94;97781.50;5015982;28;21626;-78
2023/11/14 00:07:06;;;;;;;0.60;0.60;;;;;;;9.99;91.00;97781.44;5015681;28;20050;-78
2023/11/14 00:09:32;;;;;;;0.50;0.50;;;;;;;10.07;90.11;97789.56;5014686;28;20049;-78
2023/11/14 00:11:58;;;;;;;0.50;0.50;;;;;;;10.05;89.41;97787.72;5015880;28;20048;-78
2023/11/14 00:14:24;;;;;;;0.50;0.50;;;;;;;10.16;88.42;97784.38;5016580;28;20049;-78
2023/11/14 00:16:49;;;;;;;0.60;0.60;;;;;;;10.10;87.80;97788.69;5015716;28;20048;-78
2023/11/14 00:19:15;;;;;;;0.50;0.50;;;;;;;10.04;87.17;97786.84;5016229;28;20559;-78
2023/11/14 00:21:40;;;;;;;0.52;0.52;;;;;;;10.18;85.67;97789.72;5014973;28;20072;-77
2023/11/14 00:24:07;;;;;;;0.50;0.50;;;;;;;10.18;85.49;97789.72;5016062;28;20037;-78
2023/11/14 00:26:33;;;;;;;;;;;;;;;10.20;84.98;97799.50;5016823;28;20076;-77
2023/11/14 00:28:58;;;;;;;0.50;0.50;;;;;;;10.12;85.38;97797.63;5028095;28;19979;-77
2023/11/14 00:31:24;;;;;;;0.60;0.60;;;;;;;10.06;85.60;97792.16;5014175;28;20136;-77
2023/11/14 00:33:50;;;;;;;0.60;0.60;;;;;;;10.10;85.39;97802.00;5030439;28;20777;-77
2023/11/14 00:36:15;;;;;;;0.50;0.50;;;;;;;10.22;83.33;97810.22;5030180;28;20156;-77
2023/11/14 00:38:41;;;;;;;0.60;0.60;;;;;;;10.28;82.30;97797.91;5013290;28;20121;-77
2023/11/14 00:41:06;;;;;;;0.57;0.57;;;;;;;10.22;82.17;97810.22;5014476;28;20048;-77
2023/11/14 00:43:32;;;;;;;0.60;0.60;;;;;;;10.23;81.52;97810.22;5014012;28;20069;-78
2023/11/14 00:45:58;;;;;;;0.60;0.60;;;;;;;10.26;80.21;97817.44;5015514;28;20774;-77
2023/11/14 00:48:24;;;;;;;0.50;0.50;;;;;;;10.04;80.74;97821.47;5020535;28;20171;-77
2023/11/14 00:50:50;;;;;;;0.50;0.50;;;;;;;9.89;81.90;97827.44;5021962;28;20513;-78
2023/11/14 00:53:16;;;;;;;0.60;0.60;;;;;;;9.68;82.37;97816.44;5014540;28;20043;-78
2023/11/14 00:55:42;;;;;;;0.50;0.50;;;;;;;9.48;83.22;97835.56;5027096;28;20483;-78
2023/11/14 00:58:08;;;;;;;0.60;0.60;;;;;;;9.23;84.21;97835.97;5015993;28;20045;-78
2023/11/14 01:00:33;;;;;;;0.50;0.50;;;;;;;9.08;85.22;97846.31;5015374;28;20057;-78
2023/11/14 01:03:00;;;;;;;0.60;0.60;;;;;;;8.94;86.11;97841.59;5016073;28;20120;-78
2023/11/14 01:05:29;;;;;;;0.60;0.60;;;;;;;8.79;87.61;97856.34;5028444;28;20042;-78
2023/11/14 01:07:54;;;;;;;0.60;0.60;;;;;;;8.76;86.97;97851.81;5014277;28;20115;-78
2023/11/14 01:10:21;;;;;;;0.50;0.50;;;;;;;8.68;86.48;97848.13;5027832;28;20139;-78
2023/11/14 01:12:47;;;;;;;0.60;0.60;;;;;;;8.30;87.36;97864.06;5016465;28;20036;-78
2023/11/14 01:15:13;;;;;;;0.50;0.50;;;;;;;8.25;88.38;97855.06;5013269;28;20046;-78
2023/11/14 01:17:38;;;;;;;0.60;0.60;;;;;;;8.64;84.98;97854.22;5017809;28;20033;-78
2023/11/14 01:20:05;;;;;;;0.60;0.60;;;;;;;8.56;84.70;97855.81;5016370;28;20044;-78
2023/11/14 01:22:32;;;;;;;0.70;0.70;;;;;;;8.39;85.81;97861.66;5011385;28;20537;-78
2023/11/14 01:24:57;;;;;;;0.63;0.63;;;;;;;8.09;86.49;97869.72;5005423;28;20471;-78
2023/11/14 01:27:24;;;;;;;0.60;0.60;;;;;;;7.86;87.39;97873.56;5014645;28;20538;-78
2023/11/14 01:29:50;;;;;;;0.60;0.60;;;;;;;7.70;88.45;97867.84;5030697;28;20037;-77
2023/11/14 01:32:15;;;;;;;0.50;0.50;;;;;;;7.58;89.24;97863.97;5001732;28;20029;-77
2023/11/14 01:34:41;;;;;;;0.60;0.60;;;;;;;7.47;89.73;97866.31;5014138;28;20077;-77
2023/11/14 01:37:10;;;;;;;0.60;0.60;;;;;;;7.31;91.08;97874.72;5018709;28;20037;-77
2023/11/14 01:39:35;;;;;;;0.63;0.63;;;;;;;7.31;91.53;97872.97;5013035;28;20080;-78
2023/11/14 01:42:01;;;;;;;0.60;0.60;;;;;;;7.40;91.74;97888.25;5012543;28;20038;-77
2023/11/14 01:44:27;;;;;;;0.68;0.68;;;;;;;7.20;91.27;97893.91;5014598;28;20046;-77
2023/11/14 01:46:53;;;;;;;0.70;0.70;;;;;;;7.07;92.52;97888.19;5013996;28;20407;-78
2023/11/14 01:49:19;;;;;;;0.60;0.60;;;;;;;6.89;92.19;97883.25;5020155;28;20069;-78
2023/11/14 01:51:45;;;;;;;0.70;0.70;;;;;;;6.85;92.58;97895.53;5027809;28;20029;-77
2023/11/14 01:54:11;;;;;;;0.70;0.70;;;;;;;7.03;91.93;97900.47;5014464;28;20041;-77
2023/11/14 01:56:37;;;;;;;0.70;0.70;;;;;;;7.16;91.02;97896.41;5028834;28;20042;-77
2023/11/14 01:59:02;;;;;;;0.70;0.70;;;;;;;6.97;91.11;97899.38;5004945;28;20041;-77
2023/11/14 02:01:28;;;;;;;0.70;0.70;;;;;;;6.74;91.58;97917.25;5027702;28;20132;-78
2023/11/14 02:03:54;;;;;;;0.70;0.70;;;;;;;6.76;92.48;97921.75;5015070;28;20638;-78
2023/11/14 02:06:19;;;;;;;0.68;0.68;;;;;;;6.73;92.14;97919.00;5014659;28;20049;-78
2023/11/14 02:08:46;;;;;;;0.70;0.70;;;;;;;6.73;92.60;97916.34;5011684;28;20117;-78
2023/11/14 02:11:11;;;;;;;0.70;0.70;;;;;;;6.59;92.42;97899.13;5014778;28;20041;-78
2023/11/14 02:13:38;;;;;;;0.70;0.70;;;;;;;6.39;92.74;97904.69;5012661;28;20501;-78
2023/11/14 02:16:05;;;;;;;0.70;0.70;;;;;;;6.51;92.81;97898.88;4998792;28;20034;-78
2023/11/14 02:18:31;;;;;;;0.70;0.70;;;;;;;6.36;93.02;97911.63;5014444;28;20037;-78
2023/11/14 02:20:57;;;;;;;0.70;0.70;;;;;;;6.34;92.94;97908.94;5015450;28;20048;-78
2023/11/14 02:23:26;;;;;;;0.80;0.80;;;;;;;6.37;93.60;97908.13;5014454;28;20049;-78
2023/11/14 02:25:51;;;;;;;0.70;0.70;;;;;;;6.47;93.03;97907.59;4997894;28;20042;-77
2023/11/14 02:28:17;;;;;;;0.70;0.70;;;;;;;6.42;92.56;97904.81;5014775;28;20044;-78
2023/11/14 02:30:42;;;;;;;0.70;0.70;;;;;;;6.35;92.98;97913.38;5013224;28;20037;-78
2023/11/14 02:33:08;;;;;;;0.70;0.70;;;;;;;6.00;92.77;97916.63;5016649;28;20033;-78
2023/11/14 02:35:34;;;;;;;0.70;0.70;;;;;;;5.99;93.06;97922.75;5016647;28;20450;-78
2023/11/14 02:38:00;;;;;;;0.70;0.70;;;;;;;5.95;93.79;97916.47;5017886;28;20037;-78
2023/11/14 02:40:25;;;;;;;0.70;0.70;;;;;;;5.92;93.77;97924.31;5017574;28;20092;-78
2023/11/14 02:42:52;;;;;;;0.70;0.70;;;;;;;5.82;94.21;97931.00;5028899;28;20037;-78
2023/11/14 02:45:17;;;;;;;0.70;0.70;;;;;;;5.64;94.48;97928.59;5019535;28;20037;-78
2023/11/14 02:47:43;;;;;;;0.70;0.70;;;;;;;5.75;94.81;97929.00;5017495;28;20118;-78
2023/11/14 02:50:34;;;;;;;0.70;0.70;;;;;;;5.73;94.91;97927.13;5014255;28;20026;-78
2023/11/14 02:52:59;;;;;;;0.70;0.70;;;;;;;5.86;94.95;97917.03;5018965;28;20060;-78
2023/11/14 02:55:25;;;;;;;0.80;0.80;;;;;;;5.64;94.91;97902.13;5016659;28;20038;-78
2023/11/14 02:57:50;;;;;;;0.75;0.75;;;;;;;5.55;94.92;97911.50;5031839;28;20041;-77
2023/11/14 03:00:16;;;;;;;0.70;0.70;;;;;;;5.62;95.10;97897.66;5017630;28;20041;-77
2023/11/14 03:02:45;;;;;;;0.80;0.80;;;;;;;5.47;94.89;97891.81;5015142;28;20037;-76
2023/11/14 03:05:12;;;;;;;0.80;0.80;;;;;;;5.56;95.43;97889.50;5014893;28;20053;-77
2023/11/14 03:07:37;;;;;;;0.80;0.80;;;;;;;5.54;95.12;97889.44;5016868;28;20069;-76
2023/11/14 03:10:06;;;;;;;0.80;0.80;;;;;;;5.49;95.40;97885.72;5000452;28;20179;-77
2023/11/14 03:12:31;;;;;;;0.80;0.80;;;;;;;5.46;95.29;97905.88;5016250;28;20052;-77
2023/11/14 03:14:56;;;;;;;0.70;0.70;;;;;;;5.56;95.13;97923.91;5016517;28;20029;-77
2023/11/14 03:17:22;;;;;;;0.80;0.80;;;;;;;5.70;94.95;97917.34;5019415;28;20046;-77
2023/11/14 03:19:47;;;;;;;0.80;0.80;;;;;;;5.67;95.01;97914.59;5015714;28;20034;-77
2023/11/14 03:22:14;;;;;;;0.75;0.75;;;;;;;5.52;95.43;97916.69;5018944;28;20042;-77
2023/11/14 03:24:40;;;;;;;0.73;0.73;;;;;;;5.70;95.55;97913.78;5005798;28;20095;-77
2023/11/14 03:27:05;;;;;;;0.70;0.70;;;;;;;5.59;95.24;97910.75;5031721;28;20033;-77
2023/11/14 03:29:32;;;;;;;0.80;0.80;;;;;;;5.53;95.26;97913.19;5030936;28;20056;-77
2023/11/14 03:31:57;;;;;;;0.70;0.70;;;;;;;5.41;95.87;97916.28;5030809;28;20041;-77
2023/11/14 03:34:23;;;;;;;0.80;0.80;;;;;;;5.30;95.60;97915.00;5018531;28;20044;-77
2023/11/14 03:36:54;;;;;;;0.70;0.70;;;;;;;5.34;95.70;97928.41;5023477;28;20034;-77
2023/11/14 03:39:20;;;;;;;0.80;0.80;;;;;;;5.40;95.75;97925.06;5031376;28;20732;-77
2023/11/14 03:41:46;;;;;;;0.73;0.73;;;;;;;5.35;96.23;97948.72;5029543;28;20037;-77
2023/11/14 03:44:12;;;;;;;0.80;0.80;;;;;;;5.29;96.30;97937.91;5016816;28;20050;-77
2023/11/14 03:46:38;;;;;;;0.70;0.70;;;;;;;5.13;96.19;97946.13;5022599;28;20064;-77
2023/11/14 03:49:04;;;;;;;0.70;0.70;;;;;;;5.20;96.50;97950.78;5017314;28;20117;-77
2023/11/14 03:51:30;;;;;;;0.70;0.70;;;;;;;5.18;96.69;97970.09;5031048;28;20041;-77
2023/11/14 03:53:55;;;;;;;0.80;0.80;;;;;;;5.14;96.36;97977.91;5020283;28;20037;-77
2023/11/14 03:56:20;;;;;;;0.80;0.80;;;;;;;5.19;96.87;97987.75;5019174;28;20041;-78
2023/11/14 03:58:46;;;;;;;0.80;0.80;;;;;;;5.31;96.84;97996.16;5016249;28;20045;-78
2023/11/14 04:01:12;;;;;;;0.80;0.80;;;;;;;5.34;96.43;97981.31;5015127;28;20033;-77
2023/11/14 04:03:37;;;;;;;0.80;0.80;;;;;;;5.48;96.64;97986.22;5019814;28;20045;-78
2023/11/14 04:06:03;;;;;;;0.77;0.77;;;;;;;5.44;96.88;98002.81;5016658;28;20056;-77
2023/11/14 04:08:29;;;;;;;0.77;0.77;;;;;;;5.35;96.91;98001.59;5020208;28;20777;-78
2023/11/14 04:10:55;;;;;;;0.70;0.70;;;;;;;5.47;97.07;97987.06;5015516;28;20034;-77
2023/11/14 04:13:21;;;;;;;0.70;0.70;;;;;;;5.36;96.71;97984.88;5023030;28;20038;-77
2023/11/14 04:15:48;;;;;;;0.80;0.80;;;;;;;5.44;96.59;97981.66;5013670;28;20037;-77
2023/11/14 04:18:13;;;;;;;0.80;0.80;;;;;;;5.35;96.91;97977.81;5028350;28;20041;-77
2023/11/14 04:20:39;;;;;;;0.80;0.80;;;;;;;5.28;96.56;97970.50;5015831;28;20046;-77
2023/11/14 04:23:04;;;;;;;0.80;0.80;;;;;;;5.34;96.76;97983.94;5019221;28;20048;-77
2023/11/14 04:25:30;;;;;;;0.70;0.70;;;;;;;5.42;96.74;97978.06;5028322;28;20464;-77
2023/11/14 04:27:55;;;;;;;0.80;0.80;;;;;;;5.44;96.43;97995.78;5018248;28;20232;-77
2023/11/14 04:30:21;;;;;;;0.80;0.80;;;;;;;5.47;96.33;97989.72;5014961;28;20145;-76
2023/11/14 04:32:46;;;;;;;0.80;0.80;;;;;;;5.58;96.34;97991.88;5015044;28;20571;-77
2023/11/14 04:35:12;;;;;;;0.80;0.80;;;;;;;5.53;96.29;97993.47;5012628;28;20042;-77
2023/11/14 04:37:37;;;;;;;0.70;0.70;;;;;;;5.50;95.91;97992.44;5015492;28;20034;-77
2023/11/14 04:40:05;;;;;;;0.80;0.80;;;;;;;5.45;96.21;97986.09;5016556;28;20091;-77
2023/11/14 04:42:30;;;;;;;0.70;0.70;;;;;;;5.38;95.98;98004.38;5019796;28;20042;-77
2023/11/14 04:44:57;;;;;;;0.70;0.70;;;;;;;5.50;96.21;97988.06;5027952;28;20059;-77
2023/11/14 04:47:22;;;;;;;0.80;0.80;;;;;;;5.39;96.60;97990.31;5013833;28;20454;-77
2023/11/14 04:49:48;;;;;;;0.70;0.70;;;;;;;5.48;96.65;97983.56;5013295;28;21097;-77
2023/11/14 04:52:13;;;;;;;0.80;0.80;;;;;;;5.60;96.94;97999.88;5017492;28;20049;-77
2023/11/14 04:54:39;;;;;;;0.80;0.80;;;;;;;5.59;96.91;98000.72;5015733;28;20045;-77
2023/11/14 04:57:04;;;;;;;0.80;0.80;;;;;;;5.56;96.53;98006.81;5012559;28;20026;-77
2023/11/14 04:59:30;;;;;;;0.80;0.80;;;;;;;5.40;96.69;97999.13;5012405;28;20049;-77
2023/11/14 05:01:55;;;;;;;0.70;0.70;;;;;;;5.42;96.76;97999.22;5016131;28;20040;-77
2023/11/14 05:04:21;;;;;;;0.73;0.73;;;;;;;5.45;96.89;97999.31;5015134;28;20041;-77
2023/11/14 05:06:46;;;;;;;0.80;0.80;;;;;;;5.54;97.25;98002.31;5016443;28;20040;-77
2023/11/14 05:09:13;;;;;;;0.70;0.70;;;;;;;5.59;97.19;98004.25;5027799;28;20037;-78
2023/11/14 05:11:39;;;;;;;0.70;0.70;;;;;;;5.61;96.87;98017.56;5014968;28;20057;-78
2023/11/14 05:14:08;;;;;;;0.70;0.70;;;;;;;5.56;97.16;98024.44;5014753;28;20271;-78
2023/11/14 05:16:42;;;;;;;0.80;0.80;;;;;;;5.49;97.15;98031.22;5012123;28;20103;-77
2023/11/14 05:19:09;;;;;;;0.75;0.75;;;;;;;5.61;97.44;98030.81;5016267;28;20095;-77
2023/11/14 05:21:36;;;;;;;0.75;0.75;;;;;;;5.70;97.65;98023.22;5012489;28;20637;-77
2023/11/14 05:24:02;;;;;;;;;;;;;;;5.48;97.25;98025.91;5013300;28;20056;-77
2023/11/14 05:26:27;;;;;;;0.80;0.80;;;;;;;5.52;97.51;98018.13;5012483;28;20307;-78
2023/11/14 05:28:53;;;;;;;0.80;0.80;;;;;;;5.36;97.37;98021.03;5015937;28;20128;-77
2023/11/14 05:31:18;;;;;;;0.80;0.80;;;;;;;5.45;97.52;98018.72;5012509;28;20029;-77
2023/11/14 05:33:44;;;;;;;0.70;0.70;;;;;;;5.35;97.63;98019.22;4997421;28;20045;-77
2023/11/14 05:36:10;;;;;;;0.70;0.70;;;;;;;5.53;97.66;98014.63;5011660;28;20038;-77
2023/11/14 05:38:35;;;;;;;0.70;0.70;;;;;;;5.60;97.63;98023.69;5013032;28;20033;-77
2023/11/14 05:41:02;;;;;;;0.70;0.70;;;;;;;5.56;97.59;98029.72;4997147;28;20038;-78
2023/11/14 05:43:29;;;;;;;0.70;0.70;;;;;;;5.44;98.05;98037.19;5014401;28;20041;-77
2023/11/14 05:45:55;;;;;;;0.70;0.70;;;;;;;5.40;98.09;98039.72;5018362;28;20711;-77
2023/11/14 05:48:20;;;;;;;0.70;0.70;;;;;;;5.32;97.75;98048.22;5012931;28;20061;-77
2023/11/14 05:50:46;;;;;;;0.70;0.70;;;;;;;5.31;97.67;98049.94;5013815;28;20037;-77
2023/11/14 05:53:12;;;;;;;0.70;0.70;;;;;;;5.42;98.03;98044.19;5015477;28;20124;-77
2023/11/14 05:55:37;;;;;;;0.65;0.65;;;;;;;5.36;97.90;98044.81;5012147;28;20030;-78
2023/11/14 05:58:03;;;;;;;0.70;0.70;;;;;;;5.28;97.52;98044.56;5017956;28;20582;-78
2023/11/14 06:00:28;;;;;;;0.70;0.70;;;;;;;5.40;97.95;98038.81;5011317;28;20025;-78
2023/11/14 06:02:54;;;;;;;0.70;0.70;;;;;;;5.58;97.79;98034.22;5025827;28;20037;-78
2023/11/14 06:05:20;;;;;;;0.70;0.70;;;;;;;5.59;98.00;98040.41;5025218;28;20030;-78
2023/11/14 06:07:45;;;;;;;0.60;0.60;;;;;;;5.66;97.83;98037.16;5011983;28;20099;-78
2023/11/14 06:10:11;;;;;;;0.70;0.70;;;;;;;6.05;97.85;98037.75;5013924;28;20084;-78
2023/11/14 06:12:39;;;;;;;0.70;0.70;;;;;;;6.66;97.55;98049.56;5014665;28;20042;-78
2023/11/14 06:15:09;;;;;;;0.70;0.70;;;;;;;7.16;96.04;98042.31;5014137;28;20041;-77
2023/11/14 06:17:34;;;;;;;0.70;0.70;;;;;;;7.34;95.52;98045.53;5010651;28;20128;-77
2023/11/14 06:20:00;;;;;;;0.70;0.70;;;;;;;7.57;93.85;98045.31;5013902;28;20124;-77
2023/11/14 06:22:25;;;;;;;0.60;0.60;;;;;;;7.67;92.93;98031.50;5028208;28;20046;-77
2023/11/14 06:24:51;;;;;;;0.70;0.70;;;;;;;8.00;91.06;98034.22;5014413;28;20792;-77
2023/11/14 06:27:16;;;;;;;0.60;0.60;;;;;;;7.91;90.88;98039.25;5012430;28;20121;-78
2023/11/14 06:29:43;;;;;;;0.60;0.60;;;;;;;8.13;90.19;98035.44;5014734;28;20124;-77
2023/11/14 06:32:08;;;;;;;0.70;0.70;;;;;;;8.23;89.69;98037.47;5015789;28;20044;-76
2023/11/14 06:34:34;;;;;;;0.57;0.57;;;;;;;8.45;88.69;98046.97;5015415;28;20041;-77
2023/11/14 06:36:59;;;;;;;0.60;0.60;;;;;;;8.39;88.08;98038.84;5018097;28;20116;-77
2023/11/14 06:39:25;;;;;;;0.60;0.60;;;;;;;8.39;87.94;98031.75;5013045;28;20041;-77
2023/11/14 06:41:50;;;;;;;0.60;0.60;;;;;;;8.61;86.82;98049.16;5012577;28;20029;-77
2023/11/14 06:44:18;;;;;;;0.60;0.60;;;;;;;8.39;87.91;98052.13;5013750;28;20067;-77
2023/11/14 06:46:46;;;;;;;0.57;0.57;;;;;;;8.50;87.90;98057.72;5014655;28;20038;-78
2023/11/14 06:49:11;;;;;;;0.50;0.50;;;;;;;8.51;87.86;98067.50;5018911;28;20120;-78
2023/11/14 06:51:37;;;;;;;0.60;0.60;;;;;;;8.48;87.55;98074.53;5014766;28;20052;-77
2023/11/14 06:54:02;;;;;;;0.60;0.60;;;;;;;8.45;88.37;98066.47;5017255;28;20033;-77
2023/11/14 06:56:28;;;;;;;0.50;0.50;;;;;;;8.33;88.79;98062.53;5014333;28;20045;-77
2023/11/14 06:58:53;;;;;;;0.63;0.63;;;;;;;8.22;89.51;98059.59;5013901;28;20069;-78
2023/11/14 07:01:19;;;;;;;0.60;0.60;;;;;;;8.27;88.40;98057.06;5013871;28;20033;-78
2023/11/14 07:03:44;;;;;;;0.60;0.60;;;;;;;8.26;89.64;98061.47;5027982;28;20479;-78
2023/11/14 07:06:10;;;;;;;0.60;0.60;;;;;;;8.40;89.13;98070.75;5028477;28;20036;-77
2023/11/14 07:08:35;;;;;;;0.60;0.60;;;;;;;8.38;89.40;98075.13;5013781;28;20065;-77
2023/11/14 07:11:01;;;;;;;0.55;0.55;;;;;;;8.47;89.96;98078.03;5019229;28;20125;-78
2023/11/14 07:13:27;;;;;;;0.60;0.60;;;;;;;8.51;89.35;98081.69;5014845;28;20403;-77
2023/11/14 07:15:52;;;;;;;0.60;0.60;;;;;;;8.60;89.93;98091.66;5013835;28;20038;-78
2023/11/14 07:18:18;;;;;;;0.50;0.50;;;;;;;8.62;89.66;98097.91;5014164;28;20926;-77
2023/11/14 07:20:43;;;;;;;0.50;0.50;;;;;;;8.68;88.04;98108.72;5016264;28;20372;-78
2023/11/14 07:23:09;;;;;;;0.50;0.50;;;;;;;8.68;88.64;98104.31;5015186;28;20042;-79
2023/11/14 07:25:36;;;;;;;0.60;0.60;;;;;;;8.68;88.85;98119.38;5017943;28;20499;-79
2023/11/14 07:28:02;;;;;;;;;;;;;;;8.72;88.91;98110.63;5019007;28;20475;-79
2023/11/14 07:30:30;;;;;;;0.60;0.60;;;;;;;8.68;88.42;98101.66;5017036;28;19921;-79
2023/11/14 07:32:56;;;;;;;0.50;0.50;;;;;;;8.74;87.38;98103.56;5015971;28;20045;-79
2023/11/14 07:35:21;;;;;;;0.60;0.60;;;;;;;8.96;84.75;98100.59;5017620;28;20029;-79
2023/11/14 07:37:47;;;;;;;0.50;0.50;;;;;;;8.99;86.41;98099.75;5014571;28;20057;-79
2023/11/14 07:40:13;;;;;;;0.60;0.60;;;;;;;8.98;87.55;98093.53;5016333;28;20396;-79
2023/11/14 07:42:38;;;;;;;0.60;0.60;;;;;;;8.96;87.24;98081.97;5031835;28;20045;-79
2023/11/14 07:45:06;;;;;;;0.60;0.60;;;;;;;8.94;87.38;98066.81;5018182;28;20394;-78
2023/11/14 07:47:32;;;;;;;0.50;0.50;;;;;;;8.93;87.67;98081.88;5016602;28;20620;-78
2023/11/14 07:49:58;;;;;;;0.50;0.50;;;;;;;8.90;88.60;98068.50;5020233;28;20492;-78
2023/11/14 07:52:23;;;;;;;0.60;0.60;;;;;;;8.86;88.78;98076.38;5021690;28;20057;-78
2023/11/14 07:54:49;;;;;;;0.50;0.50;;;;;;;8.84;89.49;98079.00;5028444;28;20042;-78
2023/11/14 07:57:16;;;;;;;0.50;0.50;;;;;;;8.92;89.96;98101.38;5017671;28;20487;-78
2023/11/14 07:59:41;;;;;;;0.60;0.60;;;;;;;9.05;89.86;98115.88;5016227;28;20056;-78
2023/11/14 08:02:06;;;;;;;0.50;0.50;;;;;;;9.11;89.52;98120.47;5014132;28;20038;-78
2023/11/14 08:04:32;;;;;;;0.50;0.50;;;;;;;9.22;88.36;98124.28;5014818;28;20041;-78
2023/11/14 08:06:57;;;;;;;0.50;0.50;;;;;;;9.41;87.18;98109.66;5015945;28;20042;-78
2023/11/14 08:09:23;;;;;;;0.50;0.50;;;;;;;9.62;87.58;98102.16;5013727;28;20053;-78
2023/11/14 08:11:48;;;;;;;0.50;0.50;;;;;;;9.59;82.71;98103.88;5018072;28;20042;-79
2023/11/14 08:14:15;;;;;;;0.50;0.50;;;;;;;9.75;82.23;98095.34;5017646;28;20042;-78
2023/11/14 08:16:40;;;;;;;0.50;0.50;;;;;;;9.91;84.47;98101.91;5032246;28;20071;-78
2023/11/14 08:19:05;;;;;;;0.50;0.50;;;;;;;9.90;82.61;98111.66;5014724;28;20070;-78
2023/11/14 08:21:31;;;;;;;0.50;0.50;;;;;;;9.94;83.25;98126.84;5015298;28;20049;-78
2023/11/14 08:23:57;;;;;;;0.50;0.50;;;;;;;9.77;85.29;98131.81;5014383;28;20060;-78
2023/11/14 08:26:22;;;;;;;0.50;0.50;;;;;;;9.88;83.77;98150.72;5001282;28;20864;-77
2023/11/14 08:28:48;;;;;;;0.50;0.50;;;;;;;10.21;80.66;98142.56;5018185;28;20044;-77
2023/11/14 08:31:15;;;;;;;0.50;0.50;;;;;;;10.44;78.66;98140.41;5019159;28;20643;-77
2023/11/14 08:33:42;;;;;;;0.50;0.50;;;;;;;10.77;76.51;98150.78;5014177;28;20070;-77
2023/11/14 08:36:08;;;;;;;0.50;0.50;;;;;;;10.96;75.34;98154.72;5029903;28;20033;-77
2023/11/14 08:38:34;;;;;;;0.50;0.50;;;;;;;10.96;74.30;98148.47;5015922;28;20045;-76
2023/11/14 08:41:01;;;;;;;0.60;0.60;;;;;;;10.89;73.50;98147.47;5014699;28;20184;-77
2023/11/14 08:43:27;;;;;;;0.50;0.50;;;;;;;10.91;73.66;98137.72;5023981;28;20842;-77
2023/11/14 08:45:54;;;;;;;0.50;0.50;;;;;;;11.09;73.83;98137.16;5014469;28;20077;-78
2023/11/14 08:48:21;;;;;;;0.52;0.52;;;;;;;11.10;72.94;98122.91;5030181;28;20046;-76
2023/11/14 08:50:47;;;;;;;0.60;0.60;;;;;;;11.27;72.17;98120.56;5014894;28;20124;-78
2023/11/14 08:53:13;;;;;;;0.60;0.60;;;;;;;11.45;72.20;98101.22;5014276;28;20073;-79
2023/11/14 08:55:39;;;;;;;0.60;0.60;;;;;;;11.42;70.61;98090.50;5015156;28;20030;-77
2023/11/14 08:58:06;;;;;;;0.60;0.60;;;;;;;11.47;71.33;98088.81;5017164;28;20053;-77
2023/11/14 09:00:31;;;;;;;0.60;0.60;;;;;;;11.47;70.62;98092.38;5017789;28;20038;-76
2023/11/14 09:02:58;;;;;;;0.50;0.50;;;;;;;11.52;70.80;98084.44;5017719;28;20143;-77
2023/11/14 09:05:24;;;;;;;0.60;0.60;;;;;;;11.54;69.58;98091.59;5014548;28;20132;-77
2023/11/14 09:07:50;;;;;;;0.60;0.60;;;;;;;11.69;69.69;98092.69;5013098;28;20046;-77
2023/11/14 09:10:16;;;;;;;0.50;0.50;;;;;;;11.84;68.67;98100.97;5016504;28;20033;-76
2023/11/14 09:12:41;;;;;;;0.40;0.40;;;;;;;11.68;69.17;98115.84;5015840;28;20087;-77
2023/11/14 09:15:09;;;;;;;0.50;0.50;;;;;;;11.61;69.00;98115.75;5014622;28;20033;-77
2023/11/14 09:17:34;;;;;;;0.60;0.60;;;;;;;11.64;68.85;98102.41;5014109;28;20045;-77
2023/11/14 09:20:00;;;;;;;0.50;0.50;;;;;;;11.42;69.58;98103.88;5013971;28;20049;-77
2023/11/14 09:22:28;;;;;;;0.60;0.60;;;;;;;11.52;69.15;98106.69;5027882;28;20494;-77
2023/11/14 09:24:55;;;;;;;0.50;0.50;;;;;;;11.64;69.14;98095.31;5013634;28;20037;-77
2023/11/14 09:27:22;;;;;;;0.50;0.50;;;;;;;11.52;69.13;98092.44;5016187;28;20119;-77
2023/11/14 09:29:49;;;;;;;0.60;0.60;;;;;;;11.56;68.90;98100.53;5014629;28;20033;-77
2023/11/14 09:32:14;;;;;;;0.60;0.60;;;;;;;11.54;69.12;98083.56;5016188;28;20068;-77
2023/11/14 09:34:40;;;;;;;0.50;0.50;;;;;;;11.53;69.60;98079.09;5016289;28;20065;-77
2023/11/14 09:37:05;;;;;;;0.55;0.55;;;;;;;11.35;70.51;98080.59;5014085;28;20068;-77
2023/11/14 09:39:33;;;;;;;0.50;0.50;;;;;;;11.47;70.54;98105.72;5014961;28;20120;-77
2023/11/14 09:41:59;;;;;;;0.60;0.60;;;;;;;11.47;69.15;98094.16;5015665;28;20041;-77
2023/11/14 09:44:26;;;;;;;0.60;0.60;;;;;;;11.62;68.12;98098.81;5017008;28;20048;-77
2023/11/14 09:46:52;;;;;;;0.60;0.60;;;;;;;11.60;68.65;98092.56;5015109;28;20052;-77
2023/11/14 09:49:18;;;;;;;0.57;0.57;;;;;;;11.41;67.85;98102.09;5015015;28;20449;-77
2023/11/14 09:51:45;;;;;;;0.60;0.60;;;;;;;11.37;67.54;98119.81;5031347;28;20052;-77
2023/11/14 09:54:15;;;;;;;0.50;0.50;;;;;;;11.50;68.14;98116.47;5014303;28;20486;-77
2023/11/14 09:56:45;;;;;;;0.60;0.60;;;;;;;11.49;67.37;98113.75;5014786;28;20080;-78
2023/11/14 09:59:11;;;;;;;0.50;0.50;;;;;;;11.55;67.26;98120.13;5015937;28;20038;-77
2023/11/14 10:01:39;;;;;;;0.50;0.50;;;;;;;11.47;66.70;98127.09;5013816;28;20139;-77
2023/11/14 10:04:06;;;;;;;0.50;0.50;;;;;;;11.41;66.70;98126.13;5016135;28;20077;-77
2023/11/14 10:06:33;;;;;;;;;;;;;;;11.41;66.74;98116.34;5014440;28;20042;-77
2023/11/14 10:09:01;;;;;;;0.50;0.50;;;;;;;11.36;66.18;98120.72;5012046;28;20051;-79
2023/11/14 10:11:45;;;;;;;0.60;0.60;;;;;;;11.47;65.90;98108.41;5020325;28;20065;-77
2023/11/14 10:14:11;;;;;;;0.60;0.60;;;;;;;11.47;65.50;98116.41;5014808;28;20060;-77
2023/11/14 10:16:36;;;;;;;0.50;0.50;;;;;;;11.29;66.25;98102.78;5015958;28;20813;-76
2023/11/14 10:19:13;;;;;;;0.60;0.60;;;;;;;11.40;66.07;98113.63;5014405;28;20079;-77
2023/11/14 10:21:39;;;;;;;0.60;0.60;;;;;;;11.51;65.20;98106.69;5014338;28;20033;-79
2023/11/14 10:24:15;;;;;;;0.60;0.60;;;;;;;11.45;65.40;98112.84;5018949;28;20450;-77
2023/11/14 10:26:52;;;;;;;0.60;0.60;;;;;;;11.49;64.66;98103.97;5016038;28;20124;-78
2023/11/14 10:29:19;;;;;;;0.50;0.50;;;;;;;11.54;64.72;98101.38;5012236;28;20044;-78
2023/11/14 10:31:45;;;;;;;0.60;0.60;;;;;;;11.46;66.09;98093.25;5012658;28;20042;-77
2023/11/14 10:34:33;;;;;;;0.57;0.57;;;;;;;11.48;64.76;98094.16;5014108;28;20037;-78
2023/11/14 10:37:02;;;;;;;0.50;0.50;;;;;;;11.50;64.71;98097.78;5018054;28;20101;-78
2023/11/14 10:39:27;;;;;;;0.60;0.60;;;;;;;11.48;65.26;98096.84;5014843;28;20040;-78
2023/11/14 10:41:54;;;;;;;0.60;0.60;;;;;;;11.47;64.70;98108.41;5014242;28;20045;-77
2023/11/14 10:44:20;;;;;;;0.60;0.60;;;;;;;11.52;64.42;98098.69;5014226;28;20037;-77
2023/11/14 10:46:58;;;;;;;0.60;0.60;;;;;;;11.49;64.21;98098.63;5020888;28;20041;-78
2023/11/14 10:49:24;;;;;;;0.50;0.50;;;;;;;11.47;64.88;98099.50;5013583;28;20507;-79
2023/11/14 10:51:51;;;;;;;0.50;0.50;;;;;;;11.54;64.61;98096.03;5011615;28;20675;-78
2023/11/14 10:54:18;;;;;;;0.50;0.50;;;;;;;11.53;65.42;98095.13;5017659;28;20042;-78
2023/11/14 10:56:47;;;;;;;0.60;0.60;;;;;;;11.62;64.27;98099.72;5018047;28;20049;-78
2023/11/14 10:59:14;;;;;;;0.60;0.60;;;;;;;11.73;64.16;98110.56;5015441;28;20096;-78
2023/11/14 11:01:40;;;;;;;0.60;0.60;;;;;;;11.71;63.65;98096.28;5015894;28;20062;-78
2023/11/14 11:04:07;;;;;;;0.60;0.60;;;;;;;11.82;64.41;98100.03;5016581;28;20069;-78
2023/11/14 11:06:33;;;;;;;0.60;0.60;;;;;;;11.71;64.55;98086.50;5014152;28;20049;-79
2023/11/14 11:08:59;;;;;;;0.60;0.60;;;;;;;11.72;64.33;98080.28;5018358;28;20072;-78
2023/11/14 11:11:32;;;;;;;0.50;0.50;;;;;;;11.80;63.76;98081.28;5016855;28;20045;-78
2023/11/14 11:13:59;;;;;;;0.57;0.57;;;;;;;11.88;64.37;98088.53;5018502;28;20129;-78
2023/11/14 11:16:47;;;;;;;0.50;0.50;;;;;;;11.70;65.50;98062.44;5017466;28;20041;-77
2023/11/14 11:19:32;;;;;;;0.57;0.57;;;;;;;11.71;64.03;98050.88;5015721;28;20053;-78
2023/11/14 11:21:58;;;;;;;0.50;0.50;;;;;;;11.66;64.89;98058.81;5013630;28;20045;-78
2023/11/14 11:24:27;;;;;;;0.60;0.60;;;;;;;11.75;64.99;98040.25;5018041;28;21041;-78
2023/11/14 11:27:13;;;;;;;0.50;0.50;;;;;;;11.86;64.37;98031.50;5019104;28;20100;-78
2023/11/14 11:29:48;;;;;;;0.60;0.60;;;;;;;11.92;63.08;98003.06;5018099;28;20052;-77
2023/11/14 11:32:29;;;;;;;0.55;0.55;;;;;;;12.09;63.50;97983.66;5014544;28;20568;-78
2023/11/14 11:35:18;;;;;;;0.52;0.52;;;;;;;11.95;63.52;97987.06;5015232;28;20196;-77
2023/11/14 11:37:59;;;;;;;0.57;0.57;;;;;;;11.90;63.36;97966.50;5015056;28;20045;-77